sensor_id;sensor_type;location;lat;lon;timestamp;pressure;altitude;pressure_sealevel;temperature;humidity
43741;BME280;29352;48.708;9.290;2023-09-19T00:00:38;97436.97;;;12.62;75.63
43741;BME280;29352;48.708;9.290;2023-09-19T00:03:05;97443.19;;;12.11;77.41
43741;BME280;29352;48.708;9.290;2023-09-19T00:05:34;97444.50;;;12.37;76.20
43741;BME280;29352;48.708;9.290;2023-09-19T00:08:01;97458.41;;;12.22;76.45
43741;BME280;29352;48.708;9.290;2023-09-19T00:10:29;97454.16;;;12.66;75.86
43741;BME280;29352;48.708;9.290;2023-09-19T00:13:04;97466.31;;;12.57;75.28
43741;BME280;29352;48.708;9.290;2023-09-19T00:15:38;97465.28;;;12.75;74.71
43741;BME280;29352;48.708;9.290;2023-09-19T00:18:06;97467.00;;;12.81;74.43
43741;BME280;29352;48.708;9.290;2023-09-19T00:20:36;97476.97;;;13.14;73.76
43741;BME280;29352;48.708;9.290;2023-09-19T00:23:03;97481.72;;;12.95;74.21
43741;BME280;29352;48.708;9.290;2023-09-19T00:25:29;97487.09;;;13.12;73.53
43741;BME280;29352;48.708;9.290;2023-09-19T00:27:55;97486.94;;;13.02;73.89
43741;BME280;29352;48.708;9.290;2023-09-19T00:30:20;97493.31;;;12.84;73.88
43741;BME280;29352;48.708;9.290;2023-09-19T00:32:48;97489.03;;;12.71;74.32
43741;BME280;29352;48.708;9.290;2023-09-19T00:35:15;97486.94;;;13.02;73.71
43741;BME280;29352;48.708;9.290;2023-09-19T00:37:40;97490.56;;;12.96;73.37
43741;BME280;29352;48.708;9.290;2023-09-19T00:40:08;97487.53;;;13.21;72.76
43741;BME280;29352;48.708;9.290;2023-09-19T00:42:38;97485.41;;;13.23;72.82
43741;BME280;29352;48.708;9.290;2023-09-19T00:45:07;97479.06;;;13.12;72.76
43741;BME280;29352;48.708;9.290;2023-09-19T00:47:43;97483.78;;;13.22;72.35
43741;BME280;29352;48.708;9.290;2023-09-19T00:50:19;97476.78;;;13.38;71.90
43741;BME280;29352;48.708;9.290;2023-09-19T00:52:50;97487.75;;;13.19;71.94
43741;BME280;29352;48.708;9.290;2023-09-19T00:55:21;97481.44;;;13.25;71.36
43741;BME280;29352;48.708;9.290;2023-09-19T00:57:48;97494.72;;;13.37;71.43
43741;BME280;29352;48.708;9.290;2023-09-19T01:00:17;97490.75;;;13.06;71.43
43741;BME280;29352;48.708;9.290;2023-09-19T01:02:46;97493.34;;;13.01;71.62
43741;BME280;29352;48.708;9.290;2023-09-19T01:05:12;97493.91;;;13.20;71.17
43741;BME280;29352;48.708;9.290;2023-09-19T01:07:39;97488.88;;;13.57;69.69
43741;BME280;29352;48.708;9.290;2023-09-19T01:10:11;97499.28;;;13.20;70.83
43741;BME280;29352;48.708;9.290;2023-09-19T01:15:38;97497.16;;;13.72;69.54
43741;BME280;29352;48.708;9.290;2023-09-19T01:18:25;97501.72;;;13.21;70.47
43741;BME280;29352;48.708;9.290;2023-09-19T01:21:14;97500.41;;;13.75;69.52
43741;BME280;29352;48.708;9.290;2023-09-19T01:24:40;97495.94;;;13.80;69.29
43741;BME280;29352;48.708;9.290;2023-09-19T01:30:14;97501.16;;;13.53;69.84
43741;BME280;29352;48.708;9.290;2023-09-19T01:32:49;97495.13;;;13.80;69.50
43741;BME280;29352;48.708;9.290;2023-09-19T01:35:17;97493.09;;;13.87;69.12
43741;BME280;29352;48.708;9.290;2023-09-19T01:37:44;97504.06;;;13.68;69.24
43741;BME280;29352;48.708;9.290;2023-09-19T01:40:12;97499.03;;;13.72;69.50
43741;BME280;29352;48.708;9.290;2023-09-19T01:54:11;97523.81;;;13.62;69.55
43741;BME280;29352;48.708;9.290;2023-09-19T01:59:45;97521.28;;;13.72;69.68
43741;BME280;29352;48.708;9.290;2023-09-19T02:02:17;97516.44;;;13.53;69.96
43741;BME280;29352;48.708;9.290;2023-09-19T02:04:43;97525.09;;;13.60;69.71
43741;BME280;29352;48.708;9.290;2023-09-19T02:07:09;97523.72;;;13.57;69.67
43741;BME280;29352;48.708;9.290;2023-09-19T02:09:35;97525.81;;;13.89;68.80
43741;BME280;29352;48.708;9.290;2023-09-19T02:12:03;97533.50;;;14.02;68.41
43741;BME280;29352;48.708;9.290;2023-09-19T02:14:29;97539.38;;;13.99;68.93
43741;BME280;29352;48.708;9.290;2023-09-19T02:16:55;97543.00;;;14.10;68.34
43741;BME280;29352;48.708;9.290;2023-09-19T02:19:21;97547.22;;;13.84;69.17
43741;BME280;29352;48.708;9.290;2023-09-19T02:21:46;97551.63;;;14.12;68.49
43741;BME280;29352;48.708;9.290;2023-09-19T02:24:14;97548.09;;;13.56;69.60
43741;BME280;29352;48.708;9.290;2023-09-19T02:26:40;97548.09;;;13.72;69.52
43741;BME280;29352;48.708;9.290;2023-09-19T02:29:06;97550.28;;;13.59;69.79
43741;BME280;29352;48.708;9.290;2023-09-19T02:31:32;97555.59;;;13.87;69.15
43741;BME280;29352;48.708;9.290;2023-09-19T02:33:57;97553.06;;;13.81;69.47
43741;BME280;29352;48.708;9.290;2023-09-19T02:36:22;97555.31;;;13.55;70.04
43741;BME280;29352;48.708;9.290;2023-09-19T02:38:49;97555.13;;;14.12;68.14
43741;BME280;29352;48.708;9.290;2023-09-19T02:41:15;97561.75;;;13.88;69.11
43741;BME280;29352;48.708;9.290;2023-09-19T02:43:40;97564.34;;;13.32;69.94
43741;BME280;29352;48.708;9.290;2023-09-19T02:46:05;97564.09;;;14.01;68.82
43741;BME280;29352;48.708;9.290;2023-09-19T02:48:31;97562.72;;;13.82;68.88
43741;BME280;29352;48.708;9.290;2023-09-19T02:50:57;97559.63;;;13.90;69.15
43741;BME280;29352;48.708;9.290;2023-09-19T02:53:23;97559.34;;;13.69;69.82
43741;BME280;29352;48.708;9.290;2023-09-19T02:55:49;97561.03;;;13.42;70.17
43741;BME280;29352;48.708;9.290;2023-09-19T02:58:17;97562.47;;;13.33;70.53
43741;BME280;29352;48.708;9.290;2023-09-19T03:00:43;97561.06;;;12.85;71.64
43741;BME280;29352;48.708;9.290;2023-09-19T03:03:13;97562.41;;;12.99;71.43
43741;BME280;29352;48.708;9.290;2023-09-19T03:05:38;97561.53;;;13.10;71.57
43741;BME280;29352;48.708;9.290;2023-09-19T03:08:04;97569.75;;;13.04;71.32
43741;BME280;29352;48.708;9.290;2023-09-19T03:10:30;97581.69;;;13.13;70.83
43741;BME280;29352;48.708;9.290;2023-09-19T03:12:56;97573.75;;;13.18;70.85
43741;BME280;29352;48.708;9.290;2023-09-19T03:15:25;97569.63;;;13.44;70.54
43741;BME280;29352;48.708;9.290;2023-09-19T03:17:50;97578.16;;;13.58;69.97
43741;BME280;29352;48.708;9.290;2023-09-19T03:20:18;97575.06;;;13.49;70.51
43741;BME280;29352;48.708;9.290;2023-09-19T03:22:44;97577.84;;;13.71;69.56
43741;BME280;29352;48.708;9.290;2023-09-19T03:25:11;97569.31;;;13.57;69.65
43741;BME280;29352;48.708;9.290;2023-09-19T03:27:37;97565.22;;;13.55;69.61
43741;BME280;29352;48.708;9.290;2023-09-19T03:30:05;97571.25;;;13.79;69.05
43741;BME280;29352;48.708;9.290;2023-09-19T03:32:35;97567.09;;;13.54;70.05
43741;BME280;29352;48.708;9.290;2023-09-19T03:35:02;97574.00;;;13.50;70.26
43741;BME280;29352;48.708;9.290;2023-09-19T03:37:30;97566.78;;;13.50;70.28
43741;BME280;29352;48.708;9.290;2023-09-19T03:39:56;97570.38;;;13.56;69.73
43741;BME280;29352;48.708;9.290;2023-09-19T03:42:22;97573.59;;;13.58;70.09
43741;BME280;29352;48.708;9.290;2023-09-19T03:44:51;97570.34;;;13.39;70.23
43741;BME280;29352;48.708;9.290;2023-09-19T03:47:17;97565.16;;;13.66;69.87
43741;BME280;29352;48.708;9.290;2023-09-19T03:49:44;97571.53;;;13.77;69.63
43741;BME280;29352;48.708;9.290;2023-09-19T03:52:09;97564.53;;;13.59;69.91
43741;BME280;29352;48.708;9.290;2023-09-19T03:54:35;97563.78;;;13.64;69.80
43741;BME280;29352;48.708;9.290;2023-09-19T03:57:00;97563.97;;;13.74;69.91
43741;BME280;29352;48.708;9.290;2023-09-19T03:59:26;97562.25;;;13.68;69.84
43741;BME280;29352;48.708;9.290;2023-09-19T04:01:52;97568.16;;;13.53;70.37
43741;BME280;29352;48.708;9.290;2023-09-19T04:04:21;97565.63;;;13.30;71.04
43741;BME280;29352;48.708;9.290;2023-09-19T04:06:46;97561.38;;;13.17;72.02
43741;BME280;29352;48.708;9.290;2023-09-19T04:09:11;97569.50;;;13.05;72.42
43741;BME280;29352;48.708;9.290;2023-09-19T04:11:38;97570.81;;;13.19;72.24
43741;BME280;29352;48.708;9.290;2023-09-19T04:14:03;97561.06;;;13.30;72.11
43741;BME280;29352;48.708;9.290;2023-09-19T04:16:29;97567.91;;;13.38;71.12
43741;BME280;29352;48.708;9.290;2023-09-19T04:18:55;97572.25;;;13.10;71.75
43741;BME280;29352;48.708;9.290;2023-09-19T04:21:20;97584.13;;;13.14;71.65
43741;BME280;29352;48.708;9.290;2023-09-19T04:23:45;97567.81;;;13.33;71.27
43741;BME280;29352;48.708;9.290;2023-09-19T04:26:11;97578.19;;;12.84;71.88
43741;BME280;29352;48.708;9.290;2023-09-19T04:28:37;97577.19;;;13.01;71.94
43741;BME280;29352;48.708;9.290;2023-09-19T04:31:03;97569.69;;;13.15;71.28
43741;BME280;29352;48.708;9.290;2023-09-19T04:33:29;97577.34;;;13.40;70.52
43741;BME280;29352;48.708;9.290;2023-09-19T04:35:55;97580.25;;;13.39;70.73
43741;BME280;29352;48.708;9.290;2023-09-19T04:38:21;97588.16;;;13.45;70.02
43741;BME280;29352;48.708;9.290;2023-09-19T04:40:47;97588.72;;;13.64;70.08
43741;BME280;29352;48.708;9.290;2023-09-19T04:43:13;97585.22;;;13.47;70.46
43741;BME280;29352;48.708;9.290;2023-09-19T04:45:39;97589.84;;;13.35;70.68
43741;BME280;29352;48.708;9.290;2023-09-19T04:48:07;97592.03;;;12.52;72.82
43741;BME280;29352;48.708;9.290;2023-09-19T04:50:33;97588.00;;;13.07;71.75
43741;BME280;29352;48.708;9.290;2023-09-19T04:52:59;97595.00;;;13.08;71.65
43741;BME280;29352;48.708;9.290;2023-09-19T04:55:26;97589.78;;;13.01;71.81
43741;BME280;29352;48.708;9.290;2023-09-19T04:57:52;97595.13;;;12.89;72.48
43741;BME280;29352;48.708;9.290;2023-09-19T05:00:20;97592.69;;;13.45;70.44
43741;BME280;29352;48.708;9.290;2023-09-19T05:02:55;97596.44;;;13.61;70.07
43741;BME280;29352;48.708;9.290;2023-09-19T05:05:24;97606.28;;;13.89;69.49
43741;BME280;29352;48.708;9.290;2023-09-19T05:07:51;97609.94;;;13.83;69.75
43741;BME280;29352;48.708;9.290;2023-09-19T05:10:18;97609.06;;;13.77;69.58
43741;BME280;29352;48.708;9.290;2023-09-19T05:12:44;97617.00;;;13.72;69.97
43741;BME280;29352;48.708;9.290;2023-09-19T05:15:14;97619.84;;;13.82;70.13
43741;BME280;29352;48.708;9.290;2023-09-19T05:17:40;97622.28;;;13.67;70.88
43741;BME280;29352;48.708;9.290;2023-09-19T05:20:06;97627.38;;;13.52;70.93
43741;BME280;29352;48.708;9.290;2023-09-19T05:22:41;97631.91;;;13.51;71.51
43741;BME280;29352;48.708;9.290;2023-09-19T05:25:09;97647.31;;;13.56;71.75
43741;BME280;29352;48.708;9.290;2023-09-19T05:27:35;97645.06;;;13.36;72.27
43741;BME280;29352;48.708;9.290;2023-09-19T05:30:00;97650.72;;;13.22;72.70
43741;BME280;29352;48.708;9.290;2023-09-19T05:32:26;97647.97;;;13.34;72.91
43741;BME280;29352;48.708;9.290;2023-09-19T05:34:51;97646.47;;;13.38;73.26
43741;BME280;29352;48.708;9.290;2023-09-19T05:37:19;97639.44;;;13.66;72.62
43741;BME280;29352;48.708;9.290;2023-09-19T05:39:44;97650.22;;;13.54;72.94
43741;BME280;29352;48.708;9.290;2023-09-19T05:42:10;97644.28;;;13.52;73.30
43741;BME280;29352;48.708;9.290;2023-09-19T05:44:35;97644.47;;;13.62;72.65
43741;BME280;29352;48.708;9.290;2023-09-19T05:47:02;97644.47;;;13.62;73.31
43741;BME280;29352;48.708;9.290;2023-09-19T05:49:28;97649.03;;;13.79;72.29
43741;BME280;29352;48.708;9.290;2023-09-19T05:51:53;97648.22;;;14.12;71.44
43741;BME280;29352;48.708;9.290;2023-09-19T05:54:21;97664.09;;;13.51;73.11
43741;BME280;29352;48.708;9.290;2023-09-19T05:56:47;97663.94;;;13.58;73.11
43741;BME280;29352;48.708;9.290;2023-09-19T05:59:17;97664.91;;;13.97;72.62
43741;BME280;29352;48.708;9.290;2023-09-19T06:01:43;97665.44;;;14.33;71.34
43741;BME280;29352;48.708;9.290;2023-09-19T06:04:08;97665.25;;;14.56;71.45
43741;BME280;29352;48.708;9.290;2023-09-19T06:06:33;97675.06;;;14.46;71.14
43741;BME280;29352;48.708;9.290;2023-09-19T06:09:05;97680.56;;;14.22;71.74
43741;BME280;29352;48.708;9.290;2023-09-19T06:11:34;97674.03;;;14.35;72.39
43741;BME280;29352;48.708;9.290;2023-09-19T06:14:03;97684.63;;;14.25;72.63
43741;BME280;29352;48.708;9.290;2023-09-19T06:16:30;97700.22;;;14.28;73.08
43741;BME280;29352;48.708;9.290;2023-09-19T06:18:59;97714.28;;;13.67;74.64
43741;BME280;29352;48.708;9.290;2023-09-19T06:21:27;97711.00;;;13.65;74.01
43741;BME280;29352;48.708;9.290;2023-09-19T06:23:53;97701.53;;;13.46;75.43
43741;BME280;29352;48.708;9.290;2023-09-19T06:26:19;97728.75;;;13.55;74.94
43741;BME280;29352;48.708;9.290;2023-09-19T06:28:44;97722.19;;;13.05;74.30
43741;BME280;29352;48.708;9.290;2023-09-19T06:31:10;97721.72;;;13.37;73.55
43741;BME280;29352;48.708;9.290;2023-09-19T06:33:37;97731.41;;;12.97;74.50
43741;BME280;29352;48.708;9.290;2023-09-19T06:36:06;97735.44;;;13.12;74.19
43741;BME280;29352;48.708;9.290;2023-09-19T06:38:32;97738.34;;;13.22;73.90
43741;BME280;29352;48.708;9.290;2023-09-19T06:41:01;97729.03;;;13.41;73.00
43741;BME280;29352;48.708;9.290;2023-09-19T06:43:30;97734.78;;;12.93;73.77
43741;BME280;29352;48.708;9.290;2023-09-19T06:45:56;97737.66;;;13.43;72.18
43741;BME280;29352;48.708;9.290;2023-09-19T06:48:22;97742.81;;;12.69;74.47
43741;BME280;29352;48.708;9.290;2023-09-19T06:50:50;97738.75;;;13.31;72.86
43741;BME280;29352;48.708;9.290;2023-09-19T06:53:18;97742.69;;;13.40;72.21
43741;BME280;29352;48.708;9.290;2023-09-19T06:55:43;97743.69;;;13.22;72.38
43741;BME280;29352;48.708;9.290;2023-09-19T06:58:09;97744.03;;;13.14;72.92
43741;BME280;29352;48.708;9.290;2023-09-19T07:00:36;97750.34;;;14.05;71.58
43741;BME280;29352;48.708;9.290;2023-09-19T07:03:07;97744.78;;;14.79;69.51
43741;BME280;29352;48.708;9.290;2023-09-19T07:05:40;97739.91;;;15.15;69.42
43741;BME280;29352;48.708;9.290;2023-09-19T07:08:07;97740.84;;;16.02;68.16
43741;BME280;29352;48.708;9.290;2023-09-19T07:10:34;97745.06;;;16.25;68.21
43741;BME280;29352;48.708;9.290;2023-09-19T07:13:02;97747.16;;;17.60;65.33
43741;BME280;29352;48.708;9.290;2023-09-19T07:15:31;97744.03;;;18.04;64.15
43741;BME280;29352;48.708;9.290;2023-09-19T07:18:04;97738.84;;;18.84;63.94
43741;BME280;29352;48.708;9.290;2023-09-19T07:20:32;97759.44;;;18.34;63.21
43741;BME280;29352;48.708;9.290;2023-09-19T07:22:59;97758.34;;;18.66;60.69
43741;BME280;29352;48.708;9.290;2023-09-19T07:25:26;97763.47;;;18.57;61.29
43741;BME280;29352;48.708;9.290;2023-09-19T07:27:55;97766.97;;;18.32;61.76
43741;BME280;29352;48.708;9.290;2023-09-19T07:30:21;97769.16;;;18.46;60.38
43741;BME280;29352;48.708;9.290;2023-09-19T07:32:47;97768.31;;;18.76;60.03
43741;BME280;29352;48.708;9.290;2023-09-19T07:35:13;97768.53;;;17.77;61.79
43741;BME280;29352;48.708;9.290;2023-09-19T07:37:40;97764.81;;;18.04;61.54
43741;BME280;29352;48.708;9.290;2023-09-19T07:40:06;97765.09;;;18.07;62.69
43741;BME280;29352;48.708;9.290;2023-09-19T07:42:36;97769.19;;;18.40;60.98
43741;BME280;29352;48.708;9.290;2023-09-19T07:45:06;97759.72;;;19.44;58.35
43741;BME280;29352;48.708;9.290;2023-09-19T07:47:33;97766.56;;;19.85;57.74
43741;BME280;29352;48.708;9.290;2023-09-19T07:49:59;97781.50;;;20.22;56.81
43741;BME280;29352;48.708;9.290;2023-09-19T07:52:27;97776.09;;;20.51;56.77
43741;BME280;29352;48.708;9.290;2023-09-19T07:54:54;97777.72;;;20.13;56.75
43741;BME280;29352;48.708;9.290;2023-09-19T07:57:19;97777.88;;;20.95;53.90
43741;BME280;29352;48.708;9.290;2023-09-19T07:59:45;97778.81;;;21.34;54.99
43741;BME280;29352;48.708;9.290;2023-09-19T08:02:11;97773.94;;;21.31;54.81
43741;BME280;29352;48.708;9.290;2023-09-19T08:04:47;97771.56;;;21.91;54.78
43741;BME280;29352;48.708;9.290;2023-09-19T08:07:12;97781.94;;;21.46;53.79
43741;BME280;29352;48.708;9.290;2023-09-19T08:09:38;97779.47;;;22.06;53.13
43741;BME280;29352;48.708;9.290;2023-09-19T08:12:06;97779.00;;;22.83;51.65
43741;BME280;29352;48.708;9.290;2023-09-19T08:14:36;97780.72;;;23.76;49.94
43741;BME280;29352;48.708;9.290;2023-09-19T08:17:03;97780.56;;;24.08;49.24
43741;BME280;29352;48.708;9.290;2023-09-19T08:19:30;97781.72;;;23.80;50.65
43741;BME280;29352;48.708;9.290;2023-09-19T08:22:00;97777.34;;;24.51;49.30
43741;BME280;29352;48.708;9.290;2023-09-19T08:24:29;97778.59;;;24.68;48.48
43741;BME280;29352;48.708;9.290;2023-09-19T08:26:56;97775.84;;;24.45;48.13
43741;BME280;29352;48.708;9.290;2023-09-19T08:29:23;97772.97;;;25.04;48.03
43741;BME280;29352;48.708;9.290;2023-09-19T08:31:56;97776.03;;;24.04;49.18
43741;BME280;29352;48.708;9.290;2023-09-19T08:34:24;97778.84;;;24.13;48.30
43741;BME280;29352;48.708;9.290;2023-09-19T08:36:51;97779.84;;;23.53;48.66
43741;BME280;29352;48.708;9.290;2023-09-19T08:39:18;97786.63;;;23.28;49.59
43741;BME280;29352;48.708;9.290;2023-09-19T08:41:44;97782.38;;;23.22;49.53
43741;BME280;29352;48.708;9.290;2023-09-19T08:44:10;97791.75;;;21.42;52.24
43741;BME280;29352;48.708;9.290;2023-09-19T08:46:41;97790.25;;;21.73;51.06
43741;BME280;29352;48.708;9.290;2023-09-19T08:49:33;97795.75;;;20.96;51.35
43741;BME280;29352;48.708;9.290;2023-09-19T08:52:20;97792.56;;;19.81;52.71
43741;BME280;29352;48.708;9.290;2023-09-19T08:54:52;97798.59;;;19.73;53.11
43741;BME280;29352;48.708;9.290;2023-09-19T08:57:21;97794.28;;;19.72;53.29
43741;BME280;29352;48.708;9.290;2023-09-19T08:59:48;97800.25;;;19.64;53.55
43741;BME280;29352;48.708;9.290;2023-09-19T09:02:16;97806.88;;;19.27;53.92
43741;BME280;29352;48.708;9.290;2023-09-19T09:04:46;97799.91;;;19.11;54.39
43741;BME280;29352;48.708;9.290;2023-09-19T09:07:13;97804.22;;;18.91;55.09
43741;BME280;29352;48.708;9.290;2023-09-19T09:09:40;97816.97;;;18.50;55.37
43741;BME280;29352;48.708;9.290;2023-09-19T09:12:13;97815.06;;;18.35;55.41
43741;BME280;29352;48.708;9.290;2023-09-19T09:14:40;97808.47;;;19.38;54.35
43741;BME280;29352;48.708;9.290;2023-09-19T09:17:10;97817.19;;;19.15;54.52
43741;BME280;29352;48.708;9.290;2023-09-19T09:19:37;97803.28;;;21.05;51.52
43741;BME280;29352;48.708;9.290;2023-09-19T09:22:07;97813.22;;;20.85;51.16
43741;BME280;29352;48.708;9.290;2023-09-19T09:24:34;97806.41;;;20.24;52.16
43741;BME280;29352;48.708;9.290;2023-09-19T09:27:04;97812.50;;;20.79;50.84
43741;BME280;29352;48.708;9.290;2023-09-19T09:29:47;97805.78;;;21.68;49.02
43741;BME280;29352;48.708;9.290;2023-09-19T09:32:22;97813.81;;;20.48;48.95
43741;BME280;29352;48.708;9.290;2023-09-19T09:35:01;97815.91;;;20.90;48.40
43741;BME280;29352;48.708;9.290;2023-09-19T09:37:34;97815.47;;;20.78;49.43
43741;BME280;29352;48.708;9.290;2023-09-19T09:40:04;97811.34;;;21.58;48.36
43741;BME280;29352;48.708;9.290;2023-09-19T09:42:39;97824.78;;;20.32;50.09
43741;BME280;29352;48.708;9.290;2023-09-19T09:47:48;97819.03;;;20.39;49.14
43741;BME280;29352;48.708;9.290;2023-09-19T09:50:33;97820.47;;;20.26;49.44
43741;BME280;29352;48.708;9.290;2023-09-19T09:53:22;97819.94;;;19.75;49.28
43741;BME280;29352;48.708;9.290;2023-09-19T09:56:02;97816.38;;;19.84;48.00
43741;BME280;29352;48.708;9.290;2023-09-19T09:58:33;97813.38;;;19.31;48.66
43741;BME280;29352;48.708;9.290;2023-09-19T10:01:06;97816.53;;;19.44;49.51
43741;BME280;29352;48.708;9.290;2023-09-19T10:03:39;97817.94;;;19.96;48.78
43741;BME280;29352;48.708;9.290;2023-09-19T10:06:11;97820.38;;;19.32;49.93
43741;BME280;29352;48.708;9.290;2023-09-19T10:09:05;97814.03;;;20.51;47.91
43741;BME280;29352;48.708;9.290;2023-09-19T10:11:40;97813.91;;;20.67;47.69
43741;BME280;29352;48.708;9.290;2023-09-19T10:14:15;97798.25;;;21.41;45.81
43741;BME280;29352;48.708;9.290;2023-09-19T10:16:48;97801.84;;;21.36;47.20
43741;BME280;29352;48.708;9.290;2023-09-19T10:19:25;97796.56;;;21.45;45.11
43741;BME280;29352;48.708;9.290;2023-09-19T10:21:57;97807.56;;;20.82;46.91
43741;BME280;29352;48.708;9.290;2023-09-19T10:24:28;97802.13;;;21.35;46.21
43741;BME280;29352;48.708;9.290;2023-09-19T10:26:54;97796.78;;;20.76;46.40
43741;BME280;29352;48.708;9.290;2023-09-19T10:29:24;97793.69;;;20.54;46.50
43741;BME280;29352;48.708;9.290;2023-09-19T10:31:58;97783.88;;;21.40;45.96
43741;BME280;29352;48.708;9.290;2023-09-19T10:34:25;97792.78;;;21.89;45.84
43741;BME280;29352;48.708;9.290;2023-09-19T10:36:52;97800.03;;;21.02;46.04
43741;BME280;29352;48.708;9.290;2023-09-19T10:39:19;97789.47;;;20.72;45.17
43741;BME280;29352;48.708;9.290;2023-09-19T10:41:51;97780.69;;;21.57;44.91
43741;BME280;29352;48.708;9.290;2023-09-19T10:44:24;97783.00;;;21.45;44.13
43741;BME280;29352;48.708;9.290;2023-09-19T10:46:52;97795.75;;;21.68;43.79
43741;BME280;29352;48.708;9.290;2023-09-19T10:49:20;97792.94;;;22.49;42.87
43741;BME280;29352;48.708;9.290;2023-09-19T10:51:51;97780.97;;;23.24;43.75
43741;BME280;29352;48.708;9.290;2023-09-19T10:54:24;97786.91;;;22.52;43.38
43741;BME280;29352;48.708;9.290;2023-09-19T10:56:54;97782.09;;;23.87;42.50
43741;BME280;29352;48.708;9.290;2023-09-19T10:59:23;97785.72;;;23.46;43.00
43741;BME280;29352;48.708;9.290;2023-09-19T11:01:52;97789.84;;;23.30;42.45
43741;BME280;29352;48.708;9.290;2023-09-19T11:04:33;97783.09;;;22.53;43.81
43741;BME280;29352;48.708;9.290;2023-09-19T11:07:09;97790.06;;;21.89;44.25
43741;BME280;29352;48.708;9.290;2023-09-19T11:14:56;97781.56;;;23.21;43.27
43741;BME280;29352;48.708;9.290;2023-09-19T11:30:48;97770.91;;;22.51;43.18
43741;BME280;29352;48.708;9.290;2023-09-19T11:33:27;97767.34;;;23.66;42.45
43741;BME280;29352;48.708;9.290;2023-09-19T11:43:53;97779.59;;;22.53;43.43
43741;BME280;29352;48.708;9.290;2023-09-19T11:46:54;97773.88;;;22.82;42.98
43741;BME280;29352;48.708;9.290;2023-09-19T11:49:30;97760.06;;;23.75;43.23
43741;BME280;29352;48.708;9.290;2023-09-19T11:52:04;97766.16;;;23.03;42.82
43741;BME280;29352;48.708;9.290;2023-09-19T11:54:35;97760.75;;;22.56;43.05
43741;BME280;29352;48.708;9.290;2023-09-19T11:57:05;97767.03;;;22.71;43.11
43741;BME280;29352;48.708;9.290;2023-09-19T11:59:33;97755.03;;;22.72;43.41
43741;BME280;29352;48.708;9.290;2023-09-19T12:02:03;97765.19;;;22.80;43.46
43741;BME280;29352;48.708;9.290;2023-09-19T12:04:35;97755.13;;;22.94;43.42
43741;BME280;29352;48.708;9.290;2023-09-19T12:07:12;97761.22;;;22.44;43.64
43741;BME280;29352;48.708;9.290;2023-09-19T12:09:43;97762.00;;;22.12;44.21
43741;BME280;29352;48.708;9.290;2023-09-19T12:12:26;97767.50;;;22.07;44.92
43741;BME280;29352;48.708;9.290;2023-09-19T12:14:53;97747.22;;;22.51;44.03
43741;BME280;29352;48.708;9.290;2023-09-19T12:17:20;97746.00;;;23.18;43.88
43741;BME280;29352;48.708;9.290;2023-09-19T12:19:55;97743.28;;;23.18;43.25
43741;BME280;29352;48.708;9.290;2023-09-19T12:22:22;97744.25;;;22.53;44.47
43741;BME280;29352;48.708;9.290;2023-09-19T12:24:47;97741.81;;;22.51;43.97
43741;BME280;29352;48.708;9.290;2023-09-19T12:27:15;97731.44;;;22.53;43.57
43741;BME280;29352;48.708;9.290;2023-09-19T12:29:48;97729.75;;;22.85;44.36
43741;BME280;29352;48.708;9.290;2023-09-19T12:32:15;97736.69;;;22.31;45.02
43741;BME280;29352;48.708;9.290;2023-09-19T12:34:53;97732.31;;;22.49;44.25
43741;BME280;29352;48.708;9.290;2023-09-19T12:37:19;97729.19;;;21.90;45.24
43741;BME280;29352;48.708;9.290;2023-09-19T12:39:48;97724.72;;;22.64;44.48
43741;BME280;29352;48.708;9.290;2023-09-19T12:42:25;97724.53;;;22.88;43.51
43741;BME280;29352;48.708;9.290;2023-09-19T12:44:58;97729.13;;;22.60;44.18
43741;BME280;29352;48.708;9.290;2023-09-19T12:47:26;97717.00;;;22.99;44.21
43741;BME280;29352;48.708;9.290;2023-09-19T12:50:14;97716.41;;;22.42;44.45
43741;BME280;29352;48.708;9.290;2023-09-19T12:55:24;97727.53;;;22.27;44.40
43741;BME280;29352;48.708;9.290;2023-09-19T13:00:41;97710.91;;;23.30;43.22
43741;BME280;29352;48.708;9.290;2023-09-19T13:03:18;97711.41;;;23.32;43.41
43741;BME280;29352;48.708;9.290;2023-09-19T13:05:55;97703.25;;;23.18;43.48
43741;BME280;29352;48.708;9.290;2023-09-19T13:08:29;97715.25;;;22.76;44.14
43741;BME280;29352;48.708;9.290;2023-09-19T13:13:46;97705.91;;;22.03;44.29
43741;BME280;29352;48.708;9.290;2023-09-19T13:22:01;97704.16;;;22.86;43.80
43741;BME280;29352;48.708;9.290;2023-09-19T13:24:28;97715.16;;;21.83;44.74
43741;BME280;29352;48.708;9.290;2023-09-19T13:26:55;97708.25;;;22.09;44.64
43741;BME280;29352;48.708;9.290;2023-09-19T13:29:21;97708.16;;;22.47;44.77
43741;BME280;29352;48.708;9.290;2023-09-19T13:31:52;97693.47;;;22.76;44.01
43741;BME280;29352;48.708;9.290;2023-09-19T13:34:18;97704.50;;;21.86;45.02
43741;BME280;29352;48.708;9.290;2023-09-19T13:36:45;97707.97;;;21.92;44.63
43741;BME280;29352;48.708;9.290;2023-09-19T13:39:17;97698.31;;;21.24;45.38
43741;BME280;29352;48.708;9.290;2023-09-19T13:41:47;97707.91;;;21.40;45.19
43741;BME280;29352;48.708;9.290;2023-09-19T13:44:13;97702.97;;;20.99;45.90
43741;BME280;29352;48.708;9.290;2023-09-19T13:46:39;97703.13;;;21.89;44.94
43741;BME280;29352;48.708;9.290;2023-09-19T13:49:06;97696.53;;;21.57;44.97
43741;BME280;29352;48.708;9.290;2023-09-19T13:51:32;97697.72;;;21.89;44.59
43741;BME280;29352;48.708;9.290;2023-09-19T13:53:57;97688.78;;;21.26;45.39
43741;BME280;29352;48.708;9.290;2023-09-19T13:56:24;97685.97;;;21.37;45.05
43741;BME280;29352;48.708;9.290;2023-09-19T13:58:53;97679.59;;;21.46;45.09
43741;BME280;29352;48.708;9.290;2023-09-19T14:01:19;97683.50;;;21.16;45.56
43741;BME280;29352;48.708;9.290;2023-09-19T14:03:45;97680.41;;;21.04;45.95
43741;BME280;29352;48.708;9.290;2023-09-19T14:06:17;97677.13;;;20.59;45.93
43741;BME280;29352;48.708;9.290;2023-09-19T14:08:44;97671.19;;;19.94;46.75
43741;BME280;29352;48.708;9.290;2023-09-19T14:11:13;97674.56;;;20.68;45.95
43741;BME280;29352;48.708;9.290;2023-09-19T14:13:43;97672.91;;;20.96;45.60